createdAt,value
2023-05-17T00:00:10.252Z,11.67
2023-05-17T00:05:32.144Z,11.69
2023-05-17T00:10:34.161Z,11.70
2023-05-17T00:15:36.208Z,11.67
2023-05-17T00:20:38.388Z,11.60
2023-05-17T00:25:40.778Z,11.64
2023-05-17T00:30:43.686Z,11.70
2023-05-17T00:35:45.867Z,11.75
2023-05-17T00:40:50.305Z,11.69
2023-05-17T00:45:52.387Z,11.61
2023-05-17T00:50:56.103Z,11.66
2023-05-17T00:55:58.289Z,11.64
2023-05-17T01:01:01.513Z,11.62
2023-05-17T01:06:05.996Z,11.49
2023-05-17T01:11:22.148Z,11.46
2023-05-17T01:16:40.346Z,11.28
2023-05-17T01:21:51.394Z,11.19
2023-05-17T01:26:55.312Z,11.14
2023-05-17T01:31:59.580Z,11.18
2023-05-17T01:37:01.624Z,11.22
2023-05-17T01:42:41.079Z,11.15
2023-05-17T01:47:53.226Z,11.14
2023-05-17T01:53:22.017Z,11.15
2023-05-17T01:58:26.179Z,11.17
2023-05-17T02:03:29.092Z,11.22
2023-05-17T02:08:31.437Z,11.25
2023-05-17T02:13:33.593Z,11.34
2023-05-17T02:18:37.469Z,11.42
2023-05-17T02:23:39.751Z,11.41
2023-05-17T02:28:41.884Z,11.34
2023-05-17T02:33:44.023Z,11.36
2023-05-17T02:38:46.244Z,11.34
2023-05-17T02:43:48.322Z,11.37
2023-05-17T02:48:50.340Z,11.43
2023-05-17T02:53:52.397Z,11.42
2023-05-17T02:58:57.105Z,11.42
2023-05-17T03:03:59.377Z,11.43
2023-05-17T03:09:01.707Z,11.43
2023-05-17T03:14:03.933Z,11.44
2023-05-17T03:19:06.444Z,11.46
2023-05-17T03:24:09.032Z,11.43
2023-05-17T03:29:11.615Z,11.44
2023-05-17T03:34:13.896Z,11.46
2023-05-17T03:39:16.083Z,11.46
2023-05-17T03:44:18.162Z,11.48
2023-05-17T03:49:20.660Z,11.52
2023-05-17T03:54:22.854Z,11.55
2023-05-17T03:59:25.129Z,11.54
2023-05-17T04:04:27.427Z,11.59
2023-05-17T04:09:31.738Z,11.63
2023-05-17T04:14:33.747Z,11.73
2023-05-17T04:19:36.086Z,11.81
2023-05-17T04:24:38.307Z,11.89
2023-05-17T04:29:40.945Z,11.97
2023-05-17T04:34:43.086Z,12.07
2023-05-17T04:39:45.180Z,12.14
2023-05-17T04:44:47.248Z,12.17
2023-05-17T04:49:51.173Z,12.16
2023-05-17T04:54:53.459Z,12.18
2023-05-17T04:59:55.655Z,12.24
2023-05-17T05:04:58.073Z,12.36
2023-05-17T05:10:02.517Z,12.46
2023-05-17T05:15:05.935Z,12.69
2023-05-17T05:20:09.673Z,12.88
2023-05-17T05:25:11.886Z,13.04
2023-05-17T05:30:21.549Z,13.16
2023-05-17T05:35:30.193Z,13.35
2023-05-17T05:40:33.216Z,13.72
2023-05-17T05:45:35.583Z,14.06
2023-05-17T05:50:38.377Z,14.27
2023-05-17T05:55:42.115Z,14.43
2023-05-17T06:00:44.382Z,14.56
2023-05-17T06:05:46.616Z,14.77
2023-05-17T06:10:48.958Z,14.98
2023-05-17T06:15:51.159Z,15.11
2023-05-17T06:20:53.582Z,15.24
2023-05-17T06:25:55.932Z,15.29
2023-05-17T06:30:58.523Z,15.33
2023-05-17T06:41:07.797Z,15.40
2023-05-17T06:46:09.992Z,15.36
2023-05-17T06:51:12.371Z,15.26
2023-05-17T06:56:15.574Z,15.20
2023-05-17T07:01:18.477Z,15.09
2023-05-17T07:06:20.973Z,15.11
2023-05-17T07:11:23.154Z,15.00
2023-05-17T07:16:25.335Z,14.93
2023-05-17T07:21:28.043Z,14.91
2023-05-17T07:26:30.632Z,14.95
2023-05-17T07:31:32.921Z,15.00
2023-05-17T07:36:35.242Z,15.03
2023-05-17T07:41:37.600Z,15.22
2023-05-17T07:46:39.814Z,15.51
2023-05-17T07:51:42.065Z,15.84
2023-05-17T07:56:44.251Z,15.95
2023-05-17T08:01:46.451Z,16.17
2023-05-17T08:06:49.751Z,16.40
2023-05-17T08:11:51.934Z,16.59
2023-05-17T08:16:54.118Z,16.88
2023-05-17T08:21:56.707Z,17.20
2023-05-17T08:26:58.994Z,17.56
2023-05-17T08:32:04.047Z,17.97
2023-05-17T08:37:06.313Z,18.24
2023-05-17T08:42:08.730Z,18.45
2023-05-17T08:47:12.139Z,18.45
2023-05-17T08:52:15.342Z,18.46
2023-05-17T08:57:49.883Z,18.58
2023-05-17T09:02:52.136Z,18.39
2023-05-17T09:07:56.094Z,18.22
2023-05-17T09:12:58.176Z,18.38
2023-05-17T09:18:00.552Z,18.44
2023-05-17T09:23:04.181Z,18.62
2023-05-17T09:28:11.181Z,18.39
2023-05-17T09:33:15.267Z,17.97
2023-05-17T09:38:28.366Z,17.63
2023-05-17T09:43:30.660Z,17.43
2023-05-17T09:48:32.999Z,17.37
2023-05-17T09:53:40.335Z,17.68
2023-05-17T09:58:42.520Z,17.81
2023-05-17T10:03:45.347Z,17.89
2023-05-17T10:08:53.965Z,18.17
2023-05-17T10:14:22.157Z,17.91
2023-05-17T10:19:25.795Z,17.67
2023-05-17T10:24:30.390Z,17.45
2023-05-17T10:29:34.335Z,17.40
2023-05-17T10:34:38.880Z,17.39
2023-05-17T10:39:43.310Z,17.55
2023-05-17T10:44:45.907Z,18.20
2023-05-17T10:49:51.158Z,18.26
2023-05-17T10:54:55.171Z,18.21
2023-05-17T11:00:00.365Z,18.34
2023-05-17T11:05:02.726Z,18.14
2023-05-17T11:10:11.161Z,17.86
2023-05-17T11:15:15.580Z,17.81
2023-05-17T11:20:23.900Z,17.42
2023-05-17T11:25:32.190Z,17.38
2023-05-17T11:30:34.514Z,17.79
2023-05-17T11:35:39.048Z,17.66
2023-05-17T11:40:42.042Z,17.55
2023-05-17T11:45:53.268Z,17.72
2023-05-17T11:50:56.799Z,17.90
2023-05-17T11:56:05.452Z,17.96
2023-05-17T12:01:08.697Z,18.03
2023-05-17T12:06:14.966Z,18.31
2023-05-17T12:11:21.196Z,18.19
2023-05-17T12:16:24.307Z,18.18
2023-05-17T12:21:26.498Z,18.51
2023-05-17T12:26:28.629Z,18.49
2023-05-17T12:31:42.036Z,18.68
2023-05-17T12:36:45.228Z,18.74
2023-05-17T12:41:47.716Z,18.50
2023-05-17T12:46:55.741Z,18.02
2023-05-17T12:52:04.360Z,17.76
2023-05-17T12:57:15.419Z,17.30
2023-05-17T13:02:19.725Z,17.29
2023-05-17T13:07:24.780Z,17.56
2023-05-17T13:12:27.043Z,17.49
2023-05-17T13:17:40.138Z,17.45
2023-05-17T13:22:46.733Z,17.52
2023-05-17T13:27:48.965Z,17.77
2023-05-17T13:32:51.264Z,17.96
2023-05-17T13:37:53.538Z,18.05
2023-05-17T13:42:56.045Z,17.80
2023-05-17T13:47:59.192Z,17.74
2023-05-17T13:53:02.620Z,17.88
2023-05-17T13:58:05.342Z,17.97
2023-05-17T14:03:07.731Z,18.06
2023-05-17T14:08:10.048Z,17.95
2023-05-17T14:13:12.814Z,18.29
2023-05-17T14:18:15.409Z,18.55
2023-05-17T14:23:18.412Z,19.00
2023-05-17T14:28:20.450Z,19.12
2023-05-17T14:33:22.700Z,19.01
2023-05-17T14:38:25.219Z,18.23
2023-05-17T14:43:27.648Z,17.55
2023-05-17T14:48:30.778Z,17.20
2023-05-17T14:53:32.959Z,17.13
2023-05-17T14:58:35.346Z,17.86
2023-05-17T15:03:37.564Z,18.00
2023-05-17T15:08:40.233Z,17.74
2023-05-17T15:13:42.304Z,17.52
2023-05-17T15:18:44.346Z,17.36
2023-05-17T15:23:47.503Z,17.15
2023-05-17T15:28:50.732Z,16.84
2023-05-17T15:33:52.735Z,16.43
2023-05-17T15:38:54.849Z,16.05
2023-05-17T15:43:57.767Z,15.64
2023-05-17T15:49:00.133Z,15.25
2023-05-17T15:54:02.266Z,14.86
2023-05-17T15:59:05.196Z,14.57
2023-05-17T16:04:07.555Z,14.35
2023-05-17T16:09:09.720Z,14.18
2023-05-17T16:14:11.893Z,14.04
2023-05-17T16:19:14.207Z,13.96
2023-05-17T16:24:17.079Z,13.81
2023-05-17T16:29:19.369Z,13.67
2023-05-17T16:34:21.590Z,13.46
2023-05-17T16:39:26.705Z,13.20
2023-05-17T16:44:28.894Z,13.00
2023-05-17T16:49:31.080Z,12.85
2023-05-17T16:54:35.013Z,12.71
2023-05-17T16:59:37.657Z,12.60
2023-05-17T17:04:40.188Z,12.45
2023-05-17T17:09:42.472Z,12.21
2023-05-17T17:14:44.607Z,12.06
2023-05-17T17:19:47.156Z,11.93
2023-05-17T17:24:49.440Z,11.78
2023-05-17T17:29:51.824Z,11.63
2023-05-17T17:34:53.911Z,11.44
2023-05-17T17:39:56.347Z,11.26
2023-05-17T17:44:58.330Z,11.07
2023-05-17T17:50:00.667Z,10.91
2023-05-17T17:55:02.955Z,10.78
2023-05-17T18:00:06.117Z,10.67
2023-05-17T18:05:09.136Z,10.56
2023-05-17T18:10:11.355Z,10.46
2023-05-17T18:15:13.505Z,10.38
2023-05-17T18:20:15.477Z,10.29
2023-05-17T18:25:17.810Z,10.18
2023-05-17T18:30:20.294Z,10.13
2023-05-17T18:35:22.528Z,10.12
2023-05-17T18:47:23.696Z,9.90
2023-05-17T18:52:25.973Z,9.84
2023-05-17T18:57:29.446Z,9.82
2023-05-17T19:02:31.681Z,9.79
2023-05-17T19:07:34.058Z,9.69
2023-05-17T19:12:36.040Z,9.60
2023-05-17T19:17:38.298Z,9.50
2023-05-17T19:22:40.627Z,9.41
2023-05-17T19:27:42.706Z,9.36
2023-05-17T19:32:44.715Z,9.29
2023-05-17T19:37:46.962Z,9.21
2023-05-17T19:42:49.251Z,9.15
2023-05-17T19:47:53.045Z,9.11
2023-05-17T19:52:55.208Z,9.07
2023-05-17T19:57:57.546Z,9.01
2023-05-17T20:02:59.835Z,8.96
2023-05-17T20:08:02.222Z,8.97
2023-05-17T20:13:04.296Z,8.95
2023-05-17T20:18:08.519Z,8.92
2023-05-17T20:23:12.921Z,8.87
2023-05-17T20:28:14.839Z,8.82
2023-05-17T20:38:51.475Z,8.73
2023-05-17T20:43:54.369Z,8.68
2023-05-17T20:48:57.680Z,8.64
2023-05-17T20:54:00.640Z,8.58
2023-05-17T20:59:03.603Z,8.52
2023-05-17T21:04:06.171Z,8.46
2023-05-17T21:09:08.774Z,8.39
2023-05-17T21:14:10.915Z,8.33
2023-05-17T21:19:14.090Z,8.28
2023-05-17T21:24:16.252Z,8.25
2023-05-17T21:29:18.533Z,8.21
2023-05-17T21:34:20.820Z,8.17
2023-05-17T21:39:23.013Z,8.13
2023-05-17T21:44:25.194Z,8.10
2023-05-17T21:49:28.195Z,8.08
2023-05-17T21:54:30.480Z,8.09
2023-05-17T21:59:33.689Z,8.07
2023-05-17T22:04:36.191Z,8.01
2023-05-17T22:09:38.374Z,7.99
2023-05-17T22:14:43.006Z,7.98
2023-05-17T22:19:45.401Z,7.97
2023-05-17T22:24:53.336Z,7.95
2023-05-17T22:29:55.705Z,7.93
2023-05-17T22:34:57.992Z,7.90
2023-05-17T22:40:00.407Z,7.89
2023-05-17T22:45:03.282Z,7.87
2023-05-17T22:50:06.595Z,7.88
2023-05-17T22:55:10.132Z,7.87
2023-05-17T23:00:13.220Z,7.84
2023-05-17T23:05:15.518Z,7.81
2023-05-17T23:10:17.686Z,7.80
2023-05-17T23:15:20.491Z,7.77
2023-05-17T23:20:24.583Z,7.73
2023-05-17T23:25:29.870Z,7.68
2023-05-17T23:30:32.666Z,7.63
2023-05-17T23:35:34.853Z,7.58
2023-05-17T23:40:37.052Z,7.52
2023-05-17T23:45:39.224Z,7.45
2023-05-17T23:50:41.408Z,7.35
2023-05-17T23:55:43.688Z,7.25
